Time;durP1;ratioP1;P1;durP2;ratioP2;P2;SDS_P1;SDS_P2;PMS_P1;PMS_P2;Temp;Humidity;BMP_temperature;BMP_pressure;BME280_temperature;BME280_humidity;BME280_pressure;Samples;Min_cycle;Max_cycle;Signal;HPM_P1;HPM_P2
2022/08/20 00:02:24;;;;;;;5.38;4.88;;;23.80;62.80;;;;;;5019776;28;20223;-77
2022/08/20 00:04:51;;;;;;;5.28;4.88;;;23.80;62.70;;;;;;5020148;28;20204;-76
2022/08/20 00:07:18;;;;;;;5.57;5.07;;;23.80;62.90;;;;;;5019449;28;20250;-76
2022/08/20 00:09:45;;;;;;;5.45;4.95;;;23.80;62.90;;;;;;5019571;28;20254;-76
2022/08/20 00:12:12;;;;;;;5.35;4.85;;;23.80;62.70;;;;;;5019424;28;20196;-75
2022/08/20 00:14:41;;;;;;;5.35;4.85;;;23.70;62.70;;;;;;5019389;28;20196;-76
2022/08/20 00:17:08;;;;;;;5.15;4.65;;;23.80;62.80;;;;;;5019207;28;20757;-76
2022/08/20 00:19:37;;;;;;;5.22;4.75;;;23.70;62.70;;;;;;5019261;28;20204;-76
2022/08/20 00:22:04;;;;;;;5.00;4.30;;;23.70;62.70;;;;;;5019200;28;20705;-76
2022/08/20 00:24:31;;;;;;;5.03;4.45;;;23.70;62.60;;;;;;5018986;28;20204;-77
2022/08/20 00:26:58;;;;;;;4.60;4.20;;;23.70;62.80;;;;;;5018385;28;20690;-76
2022/08/20 00:29:25;;;;;;;5.18;4.68;;;23.70;62.80;;;;;;5019090;28;20230;-76
2022/08/20 00:31:52;;;;;;;4.57;4.18;;;23.70;62.90;;;;;;5037697;28;20611;-74
2022/08/20 00:34:19;;;;;;;4.53;4.10;;;23.70;62.80;;;;;;5019198;28;20681;-76
2022/08/20 00:36:48;;;;;;;6.20;4.40;;;23.70;62.90;;;;;;5019286;28;20204;-75
2022/08/20 00:39:15;;;;;;;4.07;3.65;;;23.70;62.90;;;;;;5021005;28;20278;-77
2022/08/20 00:41:42;;;;;;;3.60;3.30;;;23.70;62.90;;;;;;5039069;28;20302;-76
2022/08/20 00:44:11;;;;;;;3.78;3.47;;;23.70;62.90;;;;;;5019376;28;20199;-78
2022/08/20 00:46:39;;;;;;;4.10;3.70;;;23.70;62.90;;;;;;5018826;28;20215;-76
2022/08/20 00:49:07;;;;;;;3.75;3.45;;;23.60;62.80;;;;;;5018869;28;20254;-76
2022/08/20 00:51:37;;;;;;;4.95;3.35;;;23.60;62.90;;;;;;5019876;28;20216;-75
2022/08/20 00:54:06;;;;;;;3.58;3.28;;;23.60;62.60;;;;;;5019063;28;20218;-77
2022/08/20 00:56:33;;;;;;;3.63;3.33;;;23.60;62.60;;;;;;5019150;28;20200;-78
2022/08/20 00:59:00;;;;;;;3.33;3.03;;;23.60;62.60;;;;;;5018942;28;20206;-76
2022/08/20 01:01:27;;;;;;;3.22;3.00;;;23.50;62.50;;;;;;5018913;28;20228;-77
2022/08/20 01:03:55;;;;;;;3.42;3.13;;;23.50;62.50;;;;;;5018547;28;20218;-76
2022/08/20 01:06:23;;;;;;;3.47;3.10;;;23.60;62.50;;;;;;5018795;28;20199;-77
2022/08/20 01:08:50;;;;;;;3.15;2.95;;;23.60;62.50;;;;;;5018700;28;20241;-75
2022/08/20 01:11:21;;;;;;;3.05;2.60;;;23.60;62.50;;;;;;5036361;28;20231;-77
2022/08/20 01:13:48;;;;;;;3.58;2.60;;;23.50;62.40;;;;;;5036611;28;20183;-76
2022/08/20 01:16:18;;;;;;;3.00;2.80;;;23.50;62.50;;;;;;5002537;28;20196;-77
2022/08/20 01:18:47;;;;;;;2.75;2.50;;;23.50;62.30;;;;;;5018752;28;20188;-76
2022/08/20 01:21:14;;;;;;;2.50;2.35;;;23.50;62.40;;;;;;5036159;28;20265;-76
2022/08/20 01:23:43;;;;;;;3.40;2.40;;;23.50;62.40;;;;;;5018597;28;20721;-75
2022/08/20 01:26:12;;;;;;;3.08;2.88;;;23.50;62.20;;;;;;5036231;28;20647;-75
2022/08/20 01:28:40;;;;;;;3.72;2.50;;;23.50;62.40;;;;;;5018283;28;20238;-77
2022/08/20 01:31:10;;;;;;;2.35;2.15;;;23.50;62.30;;;;;;5018717;28;20220;-75
2022/08/20 01:33:37;;;;;;;2.72;2.20;;;23.50;62.40;;;;;;5018060;28;20200;-76
2022/08/20 01:36:04;;;;;;;2.83;2.30;;;23.50;62.30;;;;;;5018419;28;20200;-77
2022/08/20 01:38:31;;;;;;;2.50;2.30;;;23.50;62.20;;;;;;5017317;28;20673;-77
2022/08/20 01:41:21;;;;;;;2.15;2.00;;;23.50;62.20;;;;;;5018104;28;20298;-77
2022/08/20 01:43:49;;;;;;;2.35;2.20;;;23.50;62.30;;;;;;5018221;28;20653;-77
2022/08/20 01:46:16;;;;;;;2.33;2.13;;;23.50;62.20;;;;;;5018515;28;20539;-76
2022/08/20 01:48:44;;;;;;;2.03;1.90;;;23.50;62.20;;;;;;5017810;28;20199;-77
2022/08/20 01:51:13;;;;;;;2.50;2.30;;;23.50;62.20;;;;;;5017602;28;20216;-76
2022/08/20 01:53:41;;;;;;;2.40;2.20;;;23.50;62.20;;;;;;5018000;28;20308;-77
2022/08/20 01:56:10;;;;;;;2.10;1.95;;;23.50;62.20;;;;;;5001761;28;20258;-77
2022/08/20 01:58:40;;;;;;;3.70;2.03;;;23.50;62.20;;;;;;5017341;28;20205;-76
2022/08/20 02:01:08;;;;;;;2.72;1.90;;;23.50;62.20;;;;;;5018013;28;20243;-76
2022/08/20 02:03:38;;;;;;;2.10;2.00;;;23.50;62.20;;;;;;5017361;28;20561;-75
2022/08/20 02:06:05;;;;;;;2.10;1.90;;;23.50;62.20;;;;;;5017423;28;20200;-75
2022/08/20 02:08:32;;;;;;;2.25;1.80;;;23.50;62.20;;;;;;5017433;28;20246;-76
2022/08/20 02:11:00;;;;;;;1.80;1.70;;;23.50;62.20;;;;;;5017361;28;20220;-76
2022/08/20 02:13:27;;;;;;;1.98;1.88;;;23.40;61.90;;;;;;5016976;28;20200;-76
2022/08/20 02:15:55;;;;;;;1.88;1.77;;;23.40;61.90;;;;;;5018284;28;20200;-76
2022/08/20 02:18:22;;;;;;;1.95;1.80;;;23.50;62.00;;;;;;5016997;28;20203;-77
2022/08/20 02:20:49;;;;;;;2.15;1.95;;;23.50;61.80;;;;;;5016850;28;20310;-75
2022/08/20 02:23:16;;;;;;;2.25;1.70;;;23.50;61.80;;;;;;5016996;28;20212;-75
2022/08/20 02:25:46;;;;;;;1.70;1.60;;;23.50;61.70;;;;;;5017360;28;20208;-76
2022/08/20 02:28:15;;;;;;;1.60;1.50;;;23.50;61.90;;;;;;5016829;28;20196;-76
2022/08/20 02:30:44;;;;;;;1.80;1.70;;;23.50;61.70;;;;;;5016902;28;20223;-74
2022/08/20 02:33:13;;;;;;;1.75;1.65;;;23.50;61.70;;;;;;5016738;28;20192;-76
2022/08/20 02:35:41;;;;;;;1.88;1.70;;;23.50;61.70;;;;;;5016756;28;20643;-77
2022/08/20 02:38:08;;;;;;;1.67;1.58;;;23.50;61.70;;;;;;5017951;28;20204;-74
2022/08/20 02:40:36;;;;;;;1.70;1.60;;;23.50;61.80;;;;;;5019280;28;20698;-76
2022/08/20 02:43:03;;;;;;;1.80;1.70;;;23.50;61.60;;;;;;5017031;28;20219;-76
2022/08/20 02:45:36;;;;;;;2.08;1.55;;;23.40;61.60;;;;;;5017024;28;20559;-75
2022/08/20 02:48:03;;;;;;;1.50;1.40;;;23.50;61.70;;;;;;5034347;28;20204;-76
2022/08/20 02:50:31;;;;;;;2.60;1.73;;;23.50;61.70;;;;;;5016418;28;20216;-76
2022/08/20 02:52:58;;;;;;;1.85;1.75;;;23.40;61.70;;;;;;5016713;28;20192;-75
2022/08/20 02:55:26;;;;;;;1.50;1.40;;;23.40;61.50;;;;;;5016364;28;20295;-75
2022/08/20 02:57:53;;;;;;;1.75;1.65;;;23.40;61.60;;;;;;5016452;28;20200;-76
2022/08/20 03:00:21;;;;;;;1.75;1.60;;;23.40;61.60;;;;;;5016542;28;20246;-76
2022/08/20 03:02:48;;;;;;;2.70;1.70;;;23.40;61.70;;;;;;5016214;28;20593;-76
2022/08/20 03:05:15;;;;;;;1.55;1.45;;;23.40;61.70;;;;;;5000515;28;20286;-75
2022/08/20 03:07:44;;;;;;;2.58;1.40;;;23.40;61.60;;;;;;5017130;28;20208;-77
2022/08/20 03:10:11;;;;;;;2.45;1.75;;;23.40;61.70;;;;;;5017036;28;20219;-77
2022/08/20 03:12:38;;;;;;;1.73;1.50;;;23.40;62.10;;;;;;5017029;28;20203;-75
2022/08/20 03:15:06;;;;;;;3.10;1.70;;;23.40;62.10;;;;;;5016295;28;20242;-76
2022/08/20 03:17:33;;;;;;;2.10;1.67;;;23.40;62.10;;;;;;5033787;28;20275;-77
2022/08/20 03:19:59;;;;;;;1.40;1.30;;;23.40;62.30;;;;;;5016661;28;20290;-77
2022/08/20 03:22:27;;;;;;;2.10;1.60;;;23.50;62.40;;;;;;5016513;28;20226;-77
2022/08/20 03:24:55;;;;;;;1.90;1.60;;;23.50;62.20;;;;;;5017117;28;20207;-76
2022/08/20 03:27:22;;;;;;;1.70;1.60;;;23.60;62.90;;;;;;5040858;28;20263;-76
2022/08/20 03:29:49;;;;;;;2.13;1.70;;;23.60;61.90;;;;;;5018169;28;20204;-77
2022/08/20 03:32:16;;;;;;;1.95;1.38;;;23.70;61.90;;;;;;5016656;28;20665;-74
2022/08/20 03:34:43;;;;;;;1.83;1.45;;;23.70;62.30;;;;;;5016703;28;20239;-75
2022/08/20 03:37:11;;;;;;;1.63;1.52;;;23.80;61.30;;;;;;5034419;28;20192;-74
2022/08/20 03:39:39;;;;;;;1.73;1.63;;;23.80;61.10;;;;;;5016010;28;20291;-76
2022/08/20 03:42:07;;;;;;;1.60;1.50;;;23.90;61.00;;;;;;5016047;28;20219;-77
2022/08/20 03:44:35;;;;;;;1.70;1.50;;;23.90;60.80;;;;;;5016835;28;20262;-75
2022/08/20 03:47:06;;;;;;;1.30;1.30;;;23.90;60.70;;;;;;5033481;28;20662;-77
2022/08/20 03:49:34;;;;;;;1.42;1.30;;;23.90;60.50;;;;;;5016030;28;20188;-76
2022/08/20 03:52:02;;;;;;;1.60;1.50;;;24.00;60.40;;;;;;5015939;28;20203;-77
2022/08/20 03:54:29;;;;;;;1.55;1.45;;;24.00;60.30;;;;;;5015938;28;20720;-76
2022/08/20 03:56:56;;;;;;;1.58;1.48;;;24.00;60.10;;;;;;5015862;28;20200;-77
2022/08/20 03:59:24;;;;;;;1.73;1.35;;;24.00;60.10;;;;;;5016024;28;20250;-76
2022/08/20 04:01:52;;;;;;;1.95;1.40;;;24.00;60.00;;;;;;5016036;28;20585;-75
2022/08/20 04:04:19;;;;;;;2.70;1.30;;;24.00;60.00;;;;;;5019550;28;20663;-76
2022/08/20 04:06:46;;;;;;;1.50;1.20;;;24.00;60.00;;;;;;5020658;28;20196;-77
2022/08/20 04:09:13;;;;;;;2.35;1.48;;;24.00;60.00;;;;;;5019498;28;20207;-76
2022/08/20 04:11:40;;;;;;;1.45;1.35;;;24.00;59.90;;;;;;5037232;28;20211;-77
2022/08/20 04:14:07;;;;;;;1.40;1.30;;;24.10;60.00;;;;;;5037120;28;20242;-77
2022/08/20 04:16:36;;;;;;;1.27;1.27;;;24.00;59.90;;;;;;5019602;28;20558;-76
2022/08/20 04:19:03;;;;;;;1.98;1.30;;;24.00;59.80;;;;;;5037154;28;20188;-77
2022/08/20 04:21:31;;;;;;;1.67;1.20;;;24.10;59.90;;;;;;5019780;28;20231;-77
2022/08/20 04:23:58;;;;;;;2.13;1.30;;;24.10;59.80;;;;;;5019157;28;20618;-77
2022/08/20 04:26:24;;;;;;;1.40;1.40;;;24.00;59.80;;;;;;5018996;28;20674;-76
2022/08/20 04:28:54;;;;;;;1.48;1.23;;;24.00;59.80;;;;;;5019131;28;20622;-75
2022/08/20 04:31:23;;;;;;;1.30;1.20;;;24.10;59.80;;;;;;5019658;28;20220;-76
2022/08/20 04:33:51;;;;;;;1.88;1.20;;;24.00;59.80;;;;;;5038403;28;20188;-76
2022/08/20 04:36:18;;;;;;;3.00;1.30;;;24.00;59.80;;;;;;5020740;28;20215;-75
2022/08/20 04:38:45;;;;;;;1.73;1.52;;;24.00;59.80;;;;;;5020900;28;20590;-74
2022/08/20 04:41:12;;;;;;;2.47;1.55;;;24.00;60.30;;;;;;5020106;28;20698;-75
2022/08/20 04:43:39;;;;;;;1.77;1.38;;;24.00;60.30;;;;;;5002782;28;20469;-74
2022/08/20 04:46:08;;;;;;;1.40;1.30;;;24.00;60.40;;;;;;5022197;28;20224;-74
2022/08/20 04:48:38;;;;;;;2.35;1.45;;;23.90;60.70;;;;;;5022216;28;20215;-76
2022/08/20 04:51:07;;;;;;;1.52;1.40;;;23.90;61.10;;;;;;5019124;28;20216;-76
2022/08/20 04:53:34;;;;;;;3.28;1.55;;;23.80;61.50;;;;;;5018692;28;20207;-75
2022/08/20 04:56:01;;;;;;;1.40;1.35;;;23.70;62.00;;;;;;5018399;28;20196;-77
2022/08/20 04:58:29;;;;;;;1.95;1.40;;;23.60;62.60;;;;;;5018409;28;20204;-75
2022/08/20 05:00:57;;;;;;;2.45;1.58;;;23.50;63.30;;;;;;5018754;28;20282;-75
2022/08/20 05:03:24;;;;;;;1.50;1.40;;;23.40;63.70;;;;;;5018455;28;20227;-75
2022/08/20 05:05:52;;;;;;;1.50;1.40;;;23.30;63.70;;;;;;5036094;28;20214;-76
2022/08/20 05:08:21;;;;;;;2.28;1.35;;;23.30;63.60;;;;;;5018533;28;20207;-75
2022/08/20 05:10:49;;;;;;;1.60;1.50;;;23.30;63.70;;;;;;5018615;28;20278;-75
2022/08/20 05:13:16;;;;;;;1.63;1.48;;;23.20;63.70;;;;;;5018449;28;20199;-75
2022/08/20 05:15:44;;;;;;;1.50;1.40;;;23.30;63.90;;;;;;5020610;28;20204;-77
2022/08/20 05:18:11;;;;;;;1.80;1.40;;;23.30;63.70;;;;;;5018214;28;20654;-75
2022/08/20 05:20:40;;;;;;;1.23;1.23;;;23.30;63.90;;;;;;5002118;28;20224;-75
2022/08/20 05:23:07;;;;;;;2.25;1.50;;;23.30;63.30;;;;;;5018141;28;20219;-77
2022/08/20 05:25:36;;;;;;;1.75;1.65;;;23.30;63.20;;;;;;5017822;28;20196;-76
2022/08/20 05:28:08;;;;;;;2.10;1.40;;;23.40;63.20;;;;;;5017743;28;20196;-76
2022/08/20 05:30:35;;;;;;;2.50;1.58;;;23.30;63.10;;;;;;5017861;28;20226;-75
2022/08/20 05:33:03;;;;;;;1.42;1.33;;;23.30;63.10;;;;;;5017652;28;20192;-77
2022/08/20 05:35:33;;;;;;;1.33;1.30;;;23.40;63.30;;;;;;5017941;28;20231;-74
2022/08/20 05:38:00;;;;;;;2.22;1.38;;;23.30;63.10;;;;;;5035354;28;20203;-76
2022/08/20 05:40:28;;;;;;;2.47;1.88;;;23.40;63.10;;;;;;5035419;28;20208;-75
2022/08/20 05:42:56;;;;;;;1.67;1.50;;;23.40;63.10;;;;;;5035210;28;20262;-75
2022/08/20 05:45:24;;;;;;;1.33;1.33;;;23.40;63.10;;;;;;5034910;28;20200;-76
2022/08/20 05:47:51;;;;;;;2.42;1.50;;;23.40;63.10;;;;;;5017328;28;20624;-76
2022/08/20 05:50:18;;;;;;;1.48;1.38;;;23.40;63.10;;;;;;5017464;28;20733;-76
2022/08/20 05:52:45;;;;;;;1.80;1.45;;;23.40;63.10;;;;;;5017875;28;20192;-75
2022/08/20 05:55:13;;;;;;;1.52;1.40;;;23.40;63.10;;;;;;5018872;28;20254;-75
2022/08/20 05:57:41;;;;;;;1.60;1.50;;;23.40;63.20;;;;;;5017942;28;20232;-75
2022/08/20 06:00:12;;;;;;;1.88;1.60;;;23.40;63.20;;;;;;5018013;28;20254;-75
2022/08/20 06:05:23;;;;;;;1.50;1.40;;;23.40;63.20;;;;;;5017193;28;20203;-76
2022/08/20 06:07:50;;;;;;;1.50;1.40;;;23.40;63.10;;;;;;5016987;28;20210;-76
2022/08/20 06:10:18;;;;;;;1.63;1.50;;;23.40;63.00;;;;;;5016835;28;20215;-75
2022/08/20 06:12:45;;;;;;;2.40;1.45;;;23.50;63.20;;;;;;5016904;28;20207;-75
2022/08/20 06:15:14;;;;;;;1.92;1.70;;;23.50;63.30;;;;;;5034868;28;20274;-76
2022/08/20 06:17:41;;;;;;;1.70;1.60;;;23.50;63.10;;;;;;5016927;28;20200;-75
2022/08/20 06:20:10;;;;;;;1.48;1.38;;;23.50;62.90;;;;;;5017247;28;20345;-75
2022/08/20 06:22:37;;;;;;;1.95;1.73;;;23.60;63.00;;;;;;5017277;28;20200;-75
2022/08/20 06:25:06;;;;;;;1.80;1.48;;;23.70;63.10;;;;;;5017224;28;20211;-75
2022/08/20 06:27:33;;;;;;;2.88;1.80;;;23.70;62.90;;;;;;5019573;28;20223;-75
2022/08/20 06:30:00;;;;;;;2.10;1.98;;;23.70;62.60;;;;;;5000519;28;20324;-74
2022/08/20 06:32:29;;;;;;;1.70;1.60;;;23.80;62.60;;;;;;5016817;28;20200;-75
2022/08/20 06:34:55;;;;;;;1.95;1.85;;;23.80;62.50;;;;;;5016590;28;20192;-75
2022/08/20 06:37:24;;;;;;;1.83;1.73;;;23.80;62.30;;;;;;5016331;28;20539;-75
2022/08/20 06:39:50;;;;;;;1.75;1.60;;;23.90;62.10;;;;;;5000190;28;20200;-75
2022/08/20 06:42:18;;;;;;;2.00;1.83;;;24.00;62.20;;;;;;5016393;28;20200;-77
2022/08/20 06:44:48;;;;;;;2.03;1.92;;;24.00;61.80;;;;;;5016119;28;20696;-75
2022/08/20 06:47:16;;;;;;;2.28;2.08;;;24.10;61.80;;;;;;5034216;28;20733;-76
2022/08/20 06:49:44;;;;;;;2.17;1.98;;;24.10;61.60;;;;;;5017048;28;20224;-76
2022/08/20 06:52:11;;;;;;;2.05;1.95;;;24.20;61.60;;;;;;5017095;28;20204;-75
2022/08/20 06:54:38;;;;;;;2.08;1.80;;;24.20;61.30;;;;;;5016309;28;20198;-75
2022/08/20 06:57:05;;;;;;;3.30;2.13;;;24.30;61.10;;;;;;5016246;28;20659;-75
2022/08/20 06:59:32;;;;;;;2.20;2.00;;;24.30;61.10;;;;;;5016252;28;20246;-75
2022/08/20 07:01:59;;;;;;;2.33;2.08;;;24.40;61.00;;;;;;5015883;28;20278;-77
2022/08/20 07:04:26;;;;;;;2.20;2.00;;;24.40;61.00;;;;;;5016057;28;20211;-75
2022/08/20 07:06:56;;;;;;;2.22;2.10;;;24.40;60.80;;;;;;5016400;28;20200;-75
2022/08/20 07:09:23;;;;;;;2.40;2.20;;;24.40;60.80;;;;;;5034372;28;20192;-76
2022/08/20 07:11:51;;;;;;;2.40;2.20;;;24.50;60.90;;;;;;5016486;28;20220;-76
2022/08/20 07:14:18;;;;;;;2.63;2.10;;;24.50;60.80;;;;;;5016147;28;20730;-77
2022/08/20 07:16:46;;;;;;;2.38;2.22;;;24.50;60.70;;;;;;5017358;28;20200;-75
2022/08/20 07:19:13;;;;;;;2.53;2.33;;;24.50;60.70;;;;;;5018543;28;20286;-74
2022/08/20 07:21:40;;;;;;;2.40;2.20;;;24.50;60.60;;;;;;5017110;28;20250;-75
2022/08/20 07:24:09;;;;;;;2.30;2.13;;;24.60;60.70;;;;;;5018329;28;20649;-74
2022/08/20 07:26:36;;;;;;;2.85;2.42;;;24.50;60.50;;;;;;5017831;28;20220;-74
2022/08/20 07:29:03;;;;;;;2.70;2.50;;;24.60;60.60;;;;;;5016452;28;20749;-75
2022/08/20 07:34:14;;;;;;;2.65;2.40;;;24.50;60.70;;;;;;5016194;28;20258;-75
2022/08/20 07:36:42;;;;;;;2.40;2.20;;;24.60;60.80;;;;;;5018001;28;20219;-75
2022/08/20 07:39:10;;;;;;;3.45;2.60;;;24.50;60.70;;;;;;5019930;28;20188;-77
2022/08/20 07:41:37;;;;;;;3.00;2.78;;;24.60;60.80;;;;;;5020105;28;20274;-75
2022/08/20 07:44:04;;;;;;;2.55;2.35;;;24.60;60.80;;;;;;5020154;28;20219;-75
2022/08/20 07:46:32;;;;;;;2.60;2.40;;;24.60;60.80;;;;;;5020094;28;20207;-76
2022/08/20 07:48:59;;;;;;;3.00;2.60;;;24.60;60.80;;;;;;5019697;28;20599;-75
2022/08/20 07:51:26;;;;;;;2.80;2.60;;;24.50;60.70;;;;;;5019834;28;20227;-76
2022/08/20 07:53:53;;;;;;;2.80;2.50;;;24.50;60.90;;;;;;5037716;28;20192;-75
2022/08/20 07:56:23;;;;;;;2.38;2.17;;;24.50;60.80;;;;;;5019581;28;20227;-75
2022/08/20 07:58:52;;;;;;;2.63;2.40;;;24.60;61.00;;;;;;5019404;28;20211;-75
2022/08/20 08:01:19;;;;;;;3.00;2.70;;;24.60;60.90;;;;;;5019431;28;20220;-75
2022/08/20 08:03:47;;;;;;;2.92;2.72;;;24.60;60.90;;;;;;5019614;28;20636;-76
2022/08/20 08:06:14;;;;;;;3.75;2.50;;;24.70;61.00;;;;;;5003153;28;20670;-76
2022/08/20 08:08:42;;;;;;;3.53;2.70;;;24.70;61.00;;;;;;5019185;28;20685;-75
2022/08/20 08:11:09;;;;;;;2.88;2.53;;;24.70;60.90;;;;;;4987039;28;20238;-76
2022/08/20 08:13:39;;;;;;;2.70;2.50;;;24.80;60.90;;;;;;5003137;28;20188;-75
2022/08/20 08:16:07;;;;;;;2.88;2.67;;;24.80;60.60;;;;;;5019673;28;20196;-75
2022/08/20 08:18:36;;;;;;;2.42;2.20;;;24.90;60.40;;;;;;5019528;28;20619;-76
2022/08/20 08:21:04;;;;;;;4.30;2.47;;;24.90;60.10;;;;;;5019379;28;20224;-75
2022/08/20 08:23:33;;;;;;;3.03;2.83;;;25.00;60.00;;;;;;5019394;28;20269;-76
2022/08/20 08:26:00;;;;;;;3.10;2.80;;;25.10;59.70;;;;;;5019193;28;20651;-75
2022/08/20 08:28:28;;;;;;;3.10;2.80;;;25.10;59.50;;;;;;5019553;28;20196;-75
2022/08/20 08:30:57;;;;;;;2.60;2.40;;;25.10;59.40;;;;;;5019444;28;20219;-75
2022/08/20 08:33:28;;;;;;;2.65;2.45;;;25.20;59.20;;;;;;5019037;28;20254;-76
2022/08/20 08:35:55;;;;;;;2.50;2.30;;;25.30;58.90;;;;;;5018981;28;20283;-75
2022/08/20 08:38:22;;;;;;;2.58;2.38;;;25.50;58.50;;;;;;5019930;28;20218;-74
2022/08/20 08:40:52;;;;;;;2.53;2.33;;;25.60;58.00;;;;;;5040907;28;20216;-76
2022/08/20 08:43:20;;;;;;;2.67;2.47;;;25.80;57.60;;;;;;5009634;28;20196;-74
2022/08/20 08:45:54;;;;;;;2.63;2.42;;;25.90;57.30;;;;;;5019086;28;20207;-75
2022/08/20 08:48:22;;;;;;;2.40;2.20;;;26.00;57.00;;;;;;5018432;28;20203;-76
2022/08/20 08:50:51;;;;;;;2.53;2.30;;;26.10;56.90;;;;;;5018605;28;20215;-75
2022/08/20 08:53:20;;;;;;;2.35;2.20;;;26.10;56.80;;;;;;5018780;28;20294;-75
2022/08/20 08:55:47;;;;;;;2.30;2.10;;;26.20;56.70;;;;;;5018741;28;20207;-75
2022/08/20 08:58:15;;;;;;;2.58;2.30;;;26.20;56.40;;;;;;5018717;28;20217;-77
2022/08/20 09:00:42;;;;;;;2.67;2.40;;;26.30;56.40;;;;;;5036433;28;20215;-75
2022/08/20 09:03:11;;;;;;;2.38;2.17;;;26.30;56.20;;;;;;5018253;28;20203;-76
2022/08/20 09:05:42;;;;;;;2.55;2.22;;;26.40;56.30;;;;;;5018802;28;20219;-76
2022/08/20 09:08:11;;;;;;;2.50;2.20;;;26.40;56.20;;;;;;5002510;28;20275;-76
2022/08/20 09:10:38;;;;;;;2.63;2.40;;;26.40;56.20;;;;;;5018644;28;20693;-76
2022/08/20 09:13:06;;;;;;;2.60;2.40;;;26.30;56.40;;;;;;5034835;28;20199;-75
2022/08/20 09:15:33;;;;;;;3.67;2.38;;;26.30;56.40;;;;;;5002756;28;20198;-75
2022/08/20 09:18:00;;;;;;;2.42;2.22;;;26.20;56.60;;;;;;5018735;28;20207;-75
2022/08/20 09:20:27;;;;;;;2.55;2.35;;;26.10;56.60;;;;;;5036196;28;20570;-76
2022/08/20 09:22:56;;;;;;;2.25;2.10;;;26.10;56.80;;;;;;5018733;28;20191;-75
2022/08/20 09:25:23;;;;;;;2.40;2.17;;;26.00;56.80;;;;;;5018211;28;20213;-75
2022/08/20 09:27:50;;;;;;;2.30;2.10;;;26.00;57.00;;;;;;5018384;28;20227;-74
2022/08/20 09:30:17;;;;;;;2.55;2.35;;;25.90;57.10;;;;;;5035194;28;20348;-76
2022/08/20 09:32:45;;;;;;;2.95;2.47;;;25.90;57.20;;;;;;5020782;28;20204;-75
2022/08/20 09:35:12;;;;;;;2.67;2.47;;;25.90;57.40;;;;;;5002173;28;20203;-76
2022/08/20 09:37:39;;;;;;;3.05;2.17;;;25.90;57.50;;;;;;5017920;28;20206;-75
2022/08/20 09:40:11;;;;;;;2.75;2.55;;;25.90;57.60;;;;;;5018282;28;20216;-75
2022/08/20 09:42:38;;;;;;;2.40;2.20;;;25.80;57.70;;;;;;5035893;28;20239;-75
2022/08/20 09:45:06;;;;;;;3.25;2.63;;;25.80;57.90;;;;;;5017770;28;20804;-76
2022/08/20 09:47:33;;;;;;;3.00;2.58;;;25.80;58.00;;;;;;5017499;28;20196;-76
2022/08/20 09:50:00;;;;;;;3.00;2.80;;;25.80;57.90;;;;;;5017474;28;20247;-75
2022/08/20 09:52:28;;;;;;;2.60;2.40;;;25.80;58.10;;;;;;5017506;28;20203;-74
2022/08/20 09:54:56;;;;;;;3.30;3.00;;;25.70;58.20;;;;;;5018206;28;20191;-76
2022/08/20 09:57:25;;;;;;;2.88;2.53;;;25.70;58.20;;;;;;5035470;28;20192;-74
2022/08/20 09:59:58;;;;;;;2.78;2.58;;;25.70;58.20;;;;;;5017394;28;20199;-74
2022/08/20 10:02:26;;;;;;;3.45;2.83;;;25.70;58.50;;;;;;5001766;28;20196;-76
2022/08/20 10:04:53;;;;;;;2.80;2.50;;;25.70;58.50;;;;;;5018104;28;20219;-74
2022/08/20 10:07:20;;;;;;;2.80;2.60;;;25.70;58.50;;;;;;5020906;28;20200;-76
2022/08/20 10:09:47;;;;;;;3.70;2.67;;;25.70;58.60;;;;;;5002540;28;20709;-75
2022/08/20 10:12:15;;;;;;;4.07;2.90;;;25.70;58.40;;;;;;5018518;28;20203;-74
2022/08/20 10:14:43;;;;;;;4.82;2.72;;;25.70;58.50;;;;;;5023318;28;20192;-75
2022/08/20 10:17:10;;;;;;;2.63;2.42;;;25.70;58.30;;;;;;5018646;28;20191;-76
2022/08/20 10:19:37;;;;;;;2.97;2.50;;;25.80;58.20;;;;;;5017643;28;20192;-77
2022/08/20 10:22:04;;;;;;;2.65;2.45;;;25.80;58.20;;;;;;5001166;28;20253;-75
2022/08/20 10:24:31;;;;;;;2.72;2.53;;;25.80;57.90;;;;;;5034426;28;20214;-76
2022/08/20 10:26:59;;;;;;;3.67;2.53;;;25.80;57.90;;;;;;5034748;28;20191;-75
2022/08/20 10:29:26;;;;;;;2.50;2.30;;;25.80;57.90;;;;;;5016989;28;20298;-75
2022/08/20 10:31:55;;;;;;;2.72;2.38;;;25.90;57.70;;;;;;5016910;28;20227;-76
2022/08/20 10:34:22;;;;;;;3.05;2.70;;;25.90;57.60;;;;;;5016723;28;20650;-76
2022/08/20 10:36:50;;;;;;;2.60;2.40;;;25.90;57.30;;;;;;5016661;28;20295;-75
2022/08/20 10:39:16;;;;;;;2.28;2.08;;;26.00;57.20;;;;;;5017013;28;20573;-75
2022/08/20 10:41:44;;;;;;;2.30;2.10;;;26.00;57.20;;;;;;5016684;28;20253;-77
2022/08/20 10:44:11;;;;;;;2.60;2.40;;;26.00;57.00;;;;;;5016834;28;20196;-76
2022/08/20 10:46:38;;;;;;;2.10;2.00;;;26.10;57.00;;;;;;4984089;28;20207;-74
2022/08/20 10:49:06;;;;;;;2.72;2.53;;;26.10;56.80;;;;;;5016581;28;20203;-76
2022/08/20 10:51:33;;;;;;;3.40;1.98;;;26.10;56.80;;;;;;5016659;28;20707;-75
2022/08/20 10:54:00;;;;;;;2.90;2.03;;;26.10;56.80;;;;;;5017780;28;20607;-76
2022/08/20 10:56:27;;;;;;;2.47;2.28;;;26.10;56.80;;;;;;5016486;28;20207;-75
2022/08/20 10:58:55;;;;;;;2.35;2.15;;;26.00;56.80;;;;;;5016676;28;20210;-75
2022/08/20 11:01:22;;;;;;;2.22;2.13;;;26.00;56.80;;;;;;5016307;28;20216;-75
2022/08/20 11:03:49;;;;;;;2.25;2.03;;;26.00;56.80;;;;;;5000345;28;20253;-74
2022/08/20 11:06:17;;;;;;;2.13;2.00;;;25.90;56.80;;;;;;5016161;28;20212;-76
2022/08/20 11:08:44;;;;;;;2.20;2.05;;;25.90;56.80;;;;;;5000171;28;20196;-75
2022/08/20 11:11:11;;;;;;;2.15;2.00;;;25.90;56.90;;;;;;5002616;28;20612;-76
2022/08/20 11:13:38;;;;;;;2.05;1.95;;;25.90;56.90;;;;;;5006584;28;20546;-75
2022/08/20 11:16:06;;;;;;;2.17;1.98;;;25.90;56.80;;;;;;5023089;28;20279;-75
2022/08/20 11:18:33;;;;;;;1.90;1.80;;;25.90;56.90;;;;;;5006498;28;20572;-75
2022/08/20 11:21:00;;;;;;;2.08;1.88;;;25.90;56.90;;;;;;5022856;28;20253;-75
2022/08/20 11:23:29;;;;;;;2.10;1.90;;;25.90;56.90;;;;;;5023547;28;20191;-76
2022/08/20 11:25:56;;;;;;;1.63;1.52;;;25.90;56.90;;;;;;5023023;28;20222;-75
2022/08/20 11:28:23;;;;;;;1.92;1.83;;;25.90;56.90;;;;;;5040436;28;20191;-76
2022/08/20 11:30:50;;;;;;;1.70;1.60;;;25.90;56.90;;;;;;5022642;28;20219;-76
2022/08/20 11:33:17;;;;;;;1.80;1.70;;;25.90;56.90;;;;;;5024466;28;20211;-75
2022/08/20 11:35:45;;;;;;;1.67;1.58;;;25.90;56.70;;;;;;5022780;28;20249;-75
2022/08/20 11:38:12;;;;;;;1.40;1.30;;;25.90;56.70;;;;;;5023476;28;20564;-76
2022/08/20 11:40:40;;;;;;;1.70;1.60;;;25.90;56.60;;;;;;5024163;28;20218;-76
2022/08/20 11:43:07;;;;;;;1.52;1.42;;;25.90;56.60;;;;;;5022686;28;20199;-74
2022/08/20 11:45:34;;;;;;;1.83;1.50;;;25.90;56.50;;;;;;5006997;28;20319;-77
2022/08/20 11:48:01;;;;;;;1.48;1.38;;;25.90;56.40;;;;;;5023505;28;20208;-76
2022/08/20 11:50:28;;;;;;;1.60;1.50;;;25.90;56.30;;;;;;5023825;28;20229;-75
2022/08/20 11:52:56;;;;;;;1.48;1.20;;;25.90;56.10;;;;;;5008849;28;20196;-76
2022/08/20 11:55:24;;;;;;;1.67;1.25;;;25.90;56.20;;;;;;5027082;28;20191;-76
2022/08/20 11:57:52;;;;;;;2.10;1.10;;;25.80;56.10;;;;;;5026052;28;20203;-74
2022/08/20 12:00:22;;;;;;;0.85;0.82;;;25.80;55.50;;;;;;5026502;28;20223;-76
2022/08/20 12:02:50;;;;;;;1.20;0.88;;;25.70;54.60;;;;;;5026155;28;20290;-75
2022/08/20 12:05:17;;;;;;;1.15;1.00;;;25.70;54.90;;;;;;5026536;28;20219;-74
2022/08/20 12:07:44;;;;;;;1.60;1.23;;;25.80;55.70;;;;;;5008628;28;20202;-75
2022/08/20 12:10:12;;;;;;;1.00;0.88;;;25.80;55.80;;;;;;5007325;28;20239;-76
2022/08/20 12:12:39;;;;;;;0.98;0.88;;;25.70;55.20;;;;;;5022762;28;20222;-76
2022/08/20 12:15:09;;;;;;;2.30;1.00;;;25.70;55.40;;;;;;5022318;28;20195;-75
2022/08/20 12:17:36;;;;;;;0.93;0.90;;;25.70;55.30;;;;;;5022754;28;20195;-75
2022/08/20 12:20:06;;;;;;;0.70;0.70;;;25.70;56.00;;;;;;5041707;28;20290;-76
2022/08/20 12:22:33;;;;;;;0.82;0.80;;;25.70;55.80;;;;;;5021966;28;20211;-75
2022/08/20 12:25:00;;;;;;;1.10;0.82;;;25.70;55.20;;;;;;5005217;28;20227;-75
2022/08/20 12:27:28;;;;;;;0.70;0.70;;;25.60;55.00;;;;;;5022729;28;20203;-76
2022/08/20 12:29:57;;;;;;;0.77;0.77;;;25.60;55.20;;;;;;5007956;28;20227;-74
2022/08/20 12:32:26;;;;;;;0.70;0.70;;;25.60;55.60;;;;;;5021487;28;20588;-75
2022/08/20 12:34:53;;;;;;;0.82;0.70;;;25.60;55.30;;;;;;5022266;28;20659;-75
2022/08/20 12:37:21;;;;;;;1.00;0.90;;;25.60;55.30;;;;;;5020812;28;20560;-75
2022/08/20 12:39:50;;;;;;;0.90;0.90;;;25.60;55.50;;;;;;5020948;28;20274;-76
2022/08/20 12:42:17;;;;;;;0.82;0.80;;;25.70;55.60;;;;;;5003963;28;20200;-76
2022/08/20 12:44:45;;;;;;;0.80;0.80;;;25.70;55.70;;;;;;5020565;28;20687;-76
2022/08/20 12:47:13;;;;;;;0.60;0.60;;;25.70;55.70;;;;;;5020769;28;20196;-75
2022/08/20 12:49:44;;;;;;;0.60;0.60;;;25.70;55.20;;;;;;5004125;28;20299;-75
2022/08/20 12:52:11;;;;;;;0.82;0.70;;;25.70;55.10;;;;;;5020005;28;20606;-75
2022/08/20 12:54:38;;;;;;;0.80;0.80;;;25.70;54.60;;;;;;5020393;28;20207;-75
2022/08/20 12:57:06;;;;;;;0.90;0.85;;;25.70;54.50;;;;;;5020620;28;20567;-75